sensor_id;sensor_type;location;lat;lon;timestamp;pressure;altitude;pressure_sealevel;temperature
61977;BMP280;45905;50.570;10.428;2022-11-11T00:02:22;99395.91;;;5.75
61977;BMP280;45905;50.570;10.428;2022-11-11T00:05:08;99403.63;;;5.72
61977;BMP280;45905;50.570;10.428;2022-11-11T00:07:55;99407.75;;;5.73
61977;BMP280;45905;50.570;10.428;2022-11-11T00:10:44;99414.56;;;5.71
61977;BMP280;45905;50.570;10.428;2022-11-11T00:13:31;99413.06;;;5.69
61977;BMP280;45905;50.570;10.428;2022-11-11T00:16:19;99416.47;;;5.68
61977;BMP280;45905;50.570;10.428;2022-11-11T00:19:05;99416.47;;;5.68
61977;BMP280;45905;50.570;10.428;2022-11-11T00:22:21;99429.72;;;5.70
61977;BMP280;45905;50.570;10.428;2022-11-11T00:25:25;99421.28;;;5.71
61977;BMP280;45905;50.570;10.428;2022-11-11T00:28:12;99422.31;;;5.68
61977;BMP280;45905;50.570;10.428;2022-11-11T00:31:06;99422.31;;;5.68
61977;BMP280;45905;50.570;10.428;2022-11-11T00:33:53;99428.22;;;5.67
61977;BMP280;45905;50.570;10.428;2022-11-11T00:36:38;99418.25;;;5.66
61977;BMP280;45905;50.570;10.428;2022-11-11T00:39:29;99425.72;;;5.67
61977;BMP280;45905;50.570;10.428;2022-11-11T00:42:14;99428.38;;;5.64
61977;BMP280;45905;50.570;10.428;2022-11-11T00:45:00;99433.69;;;5.60
61977;BMP280;45905;50.570;10.428;2022-11-11T00:47:46;99444.72;;;5.57
61977;BMP280;45905;50.570;10.428;2022-11-11T00:50:49;99440.50;;;5.58
61977;BMP280;45905;50.570;10.428;2022-11-11T00:53:44;99435.38;;;5.59
61977;BMP280;45905;50.570;10.428;2022-11-11T00:56:29;99445.44;;;5.59
61977;BMP280;45905;50.570;10.428;2022-11-11T00:59:15;99444.97;;;5.53
61977;BMP280;45905;50.570;10.428;2022-11-11T01:02:00;99440.53;;;5.43
61977;BMP280;45905;50.570;10.428;2022-11-11T01:04:46;99447.03;;;5.33
61977;BMP280;45905;50.570;10.428;2022-11-11T01:07:32;99444.75;;;5.29
61977;BMP280;45905;50.570;10.428;2022-11-11T01:10:20;99450.22;;;5.35
61977;BMP280;45905;50.570;10.428;2022-11-11T01:13:32;99444.97;;;5.39
61977;BMP280;45905;50.570;10.428;2022-11-11T01:16:24;99453.03;;;5.44
61977;BMP280;45905;50.570;10.428;2022-11-11T01:19:10;99455.47;;;5.46
61977;BMP280;45905;50.570;10.428;2022-11-11T01:21:56;99446.50;;;5.42
61977;BMP280;45905;50.570;10.428;2022-11-11T01:24:42;99447.91;;;5.46
61977;BMP280;45905;50.570;10.428;2022-11-11T01:27:28;99434.47;;;5.47
61977;BMP280;45905;50.570;10.428;2022-11-11T01:30:13;99438.59;;;5.48
61977;BMP280;45905;50.570;10.428;2022-11-11T01:33:00;99441.03;;;5.49
61977;BMP280;45905;50.570;10.428;2022-11-11T01:35:46;99446.13;;;5.48
61977;BMP280;45905;50.570;10.428;2022-11-11T01:38:32;99442.72;;;5.49
61977;BMP280;45905;50.570;10.428;2022-11-11T01:41:26;99435.91;;;5.51
61977;BMP280;45905;50.570;10.428;2022-11-11T01:44:46;99440.94;;;5.51
61977;BMP280;45905;50.570;10.428;2022-11-11T01:47:34;99431.94;;;5.47
61977;BMP280;45905;50.570;10.428;2022-11-11T01:50:58;99432.13;;;5.44
61977;BMP280;45905;50.570;10.428;2022-11-11T01:53:52;99428.19;;;5.40
61977;BMP280;45905;50.570;10.428;2022-11-11T01:56:43;99424.13;;;5.37
61977;BMP280;45905;50.570;10.428;2022-11-11T01:59:34;99423.31;;;5.37
61977;BMP280;45905;50.570;10.428;2022-11-11T02:02:31;99425.81;;;5.37
61977;BMP280;45905;50.570;10.428;2022-11-11T02:05:22;99437.50;;;5.38
61977;BMP280;45905;50.570;10.428;2022-11-11T02:08:32;99440.09;;;5.36
61977;BMP280;45905;50.570;10.428;2022-11-11T02:11:22;99440.28;;;5.33
61977;BMP280;45905;50.570;10.428;2022-11-11T02:14:27;99446.09;;;5.34
61977;BMP280;45905;50.570;10.428;2022-11-11T02:17:27;99440.28;;;5.33
61977;BMP280;45905;50.570;10.428;2022-11-11T02:20:23;99448.72;;;5.32
61977;BMP280;45905;50.570;10.428;2022-11-11T02:23:24;99437.06;;;5.32
61977;BMP280;45905;50.570;10.428;2022-11-11T02:26:16;99438.75;;;5.31
61977;BMP280;45905;50.570;10.428;2022-11-11T02:29:09;99439.66;;;5.30
61977;BMP280;45905;50.570;10.428;2022-11-11T02:31:57;99439.66;;;5.30
61977;BMP280;45905;50.570;10.428;2022-11-11T02:34:43;99438.75;;;5.31
61977;BMP280;45905;50.570;10.428;2022-11-11T02:37:28;99434.63;;;5.30
61977;BMP280;45905;50.570;10.428;2022-11-11T02:40:38;99438.91;;;5.28
61977;BMP280;45905;50.570;10.428;2022-11-11T02:43:43;99441.44;;;5.28
61977;BMP280;45905;50.570;10.428;2022-11-11T02:46:30;99443.94;;;5.28
61977;BMP280;45905;50.570;10.428;2022-11-11T02:49:15;99453.19;;;5.28
61977;BMP280;45905;50.570;10.428;2022-11-11T02:52:01;99463.22;;;5.28
61977;BMP280;45905;50.570;10.428;2022-11-11T02:54:47;99464.94;;;5.27
61977;BMP280;45905;50.570;10.428;2022-11-11T02:57:34;99454.16;;;5.25
61977;BMP280;45905;50.570;10.428;2022-11-11T03:00:20;99469.22;;;5.25
61977;BMP280;45905;50.570;10.428;2022-11-11T03:03:05;99472.66;;;5.24
61977;BMP280;45905;50.570;10.428;2022-11-11T03:05:52;99466.72;;;5.25
61977;BMP280;45905;50.570;10.428;2022-11-11T03:08:37;99480.00;;;5.27
61977;BMP280;45905;50.570;10.428;2022-11-11T03:11:23;99476.59;;;5.28
61977;BMP280;45905;50.570;10.428;2022-11-11T03:14:15;99481.63;;;5.28
61977;BMP280;45905;50.570;10.428;2022-11-11T03:17:00;99482.53;;;5.27
61977;BMP280;45905;50.570;10.428;2022-11-11T03:20:10;99479.94;;;5.29
61977;BMP280;45905;50.570;10.428;2022-11-11T03:23:15;99477.25;;;5.32
61977;BMP280;45905;50.570;10.428;2022-11-11T03:26:01;99477.19;;;5.33
61977;BMP280;45905;50.570;10.428;2022-11-11T03:28:46;99484.53;;;5.36
61977;BMP280;45905;50.570;10.428;2022-11-11T03:31:32;99490.34;;;5.36
61977;BMP280;45905;50.570;10.428;2022-11-11T03:34:18;99485.25;;;5.38
61977;BMP280;45905;50.570;10.428;2022-11-11T03:37:09;99495.22;;;5.39
61977;BMP280;45905;50.570;10.428;2022-11-11T03:40:13;99495.13;;;5.41
61977;BMP280;45905;50.570;10.428;2022-11-11T03:42:59;99486.78;;;5.40
61977;BMP280;45905;50.570;10.428;2022-11-11T03:45:53;99494.94;;;5.44
61977;BMP280;45905;50.570;10.428;2022-11-11T03:48:40;99484.72;;;5.47
61977;BMP280;45905;50.570;10.428;2022-11-11T03:51:25;99489.59;;;5.50
61977;BMP280;45905;50.570;10.428;2022-11-11T03:54:11;99483.69;;;5.51
61977;BMP280;45905;50.570;10.428;2022-11-11T03:56:57;99480.16;;;5.53
61977;BMP280;45905;50.570;10.428;2022-11-11T04:00:03;99482.75;;;5.51
61977;BMP280;45905;50.570;10.428;2022-11-11T04:03:18;99476.81;;;5.52
61977;BMP280;45905;50.570;10.428;2022-11-11T04:06:22;99476.81;;;5.52
61977;BMP280;45905;50.570;10.428;2022-11-11T04:09:26;99480.06;;;5.54
61977;BMP280;45905;50.570;10.428;2022-11-11T04:12:32;99474.06;;;5.57
61977;BMP280;45905;50.570;10.428;2022-11-11T04:15:39;99479.81;;;5.59
61977;BMP280;45905;50.570;10.428;2022-11-11T04:18:44;99484.75;;;5.60
61977;BMP280;45905;50.570;10.428;2022-11-11T04:21:48;99483.84;;;5.61
61977;BMP280;45905;50.570;10.428;2022-11-11T04:24:34;99490.50;;;5.62
61977;BMP280;45905;50.570;10.428;2022-11-11T04:27:38;99500.75;;;5.59
61977;BMP280;45905;50.570;10.428;2022-11-11T04:30:24;99494.34;;;5.54
61977;BMP280;45905;50.570;10.428;2022-11-11T04:33:09;99496.78;;;5.55
61977;BMP280;45905;50.570;10.428;2022-11-11T04:35:55;99504.97;;;5.59
61977;BMP280;45905;50.570;10.428;2022-11-11T04:38:40;99511.50;;;5.61
61977;BMP280;45905;50.570;10.428;2022-11-11T04:41:44;99510.53;;;5.64
61977;BMP280;45905;50.570;10.428;2022-11-11T04:44:50;99507.19;;;5.63
61977;BMP280;45905;50.570;10.428;2022-11-11T04:48:04;99506.47;;;5.61
61977;BMP280;45905;50.570;10.428;2022-11-11T04:50:50;99507.56;;;5.57
61977;BMP280;45905;50.570;10.428;2022-11-11T04:53:36;99511.13;;;5.53
61977;BMP280;45905;50.570;10.428;2022-11-11T04:56:21;99514.28;;;5.57
61977;BMP280;45905;50.570;10.428;2022-11-11T04:59:25;99519.78;;;5.63
61977;BMP280;45905;50.570;10.428;2022-11-11T05:02:10;99521.25;;;5.67
61977;BMP280;45905;50.570;10.428;2022-11-11T05:05:14;99516.22;;;5.67
61977;BMP280;45905;50.570;10.428;2022-11-11T05:08:00;99520.66;;;5.62
61977;BMP280;45905;50.570;10.428;2022-11-11T05:11:04;99514.00;;;5.61
61977;BMP280;45905;50.570;10.428;2022-11-11T05:13:52;99520.44;;;5.67
61977;BMP280;45905;50.570;10.428;2022-11-11T05:16:58;99512.63;;;5.71
61977;BMP280;45905;50.570;10.428;2022-11-11T05:20:03;99520.53;;;5.79
61977;BMP280;45905;50.570;10.428;2022-11-11T05:23:07;99519.47;;;5.83
61977;BMP280;45905;50.570;10.428;2022-11-11T05:25:52;99520.53;;;5.79
61977;BMP280;45905;50.570;10.428;2022-11-11T05:28:38;99512.47;;;5.74
61977;BMP280;45905;50.570;10.428;2022-11-11T05:31:23;99509.88;;;5.75
61977;BMP280;45905;50.570;10.428;2022-11-11T05:34:09;99505.44;;;5.79
61977;BMP280;45905;50.570;10.428;2022-11-11T05:36:54;99514.44;;;5.83
61977;BMP280;45905;50.570;10.428;2022-11-11T05:39:40;99520.00;;;5.88
61977;BMP280;45905;50.570;10.428;2022-11-11T05:42:26;99506.75;;;5.86
61977;BMP280;45905;50.570;10.428;2022-11-11T05:45:12;99511.22;;;5.81
61977;BMP280;45905;50.570;10.428;2022-11-11T05:48:01;99511.03;;;5.84
61977;BMP280;45905;50.570;10.428;2022-11-11T05:50:47;99516.97;;;5.83
61977;BMP280;45905;50.570;10.428;2022-11-11T05:53:33;99508.53;;;5.84
61977;BMP280;45905;50.570;10.428;2022-11-11T05:56:19;99514.44;;;5.83
61977;BMP280;45905;50.570;10.428;2022-11-11T05:59:05;99527.03;;;5.83
61977;BMP280;45905;50.570;10.428;2022-11-11T06:01:51;99522.25;;;5.78
61977;BMP280;45905;50.570;10.428;2022-11-11T06:04:37;99525.75;;;5.76
61977;BMP280;45905;50.570;10.428;2022-11-11T06:07:22;99525.03;;;5.74
61977;BMP280;45905;50.570;10.428;2022-11-11T06:10:08;99532.75;;;5.71
61977;BMP280;45905;50.570;10.428;2022-11-11T06:13:13;99528.38;;;5.74
61977;BMP280;45905;50.570;10.428;2022-11-11T06:16:00;99535.81;;;5.76
61977;BMP280;45905;50.570;10.428;2022-11-11T06:18:46;99533.47;;;5.73
61977;BMP280;45905;50.570;10.428;2022-11-11T06:21:32;99545.81;;;5.77
61977;BMP280;45905;50.570;10.428;2022-11-11T06:24:37;99547.16;;;5.83
61977;BMP280;45905;50.570;10.428;2022-11-11T06:27:23;99540.31;;;5.85
61977;BMP280;45905;50.570;10.428;2022-11-11T06:30:09;99538.50;;;5.87
61977;BMP280;45905;50.570;10.428;2022-11-11T06:33:15;99544.91;;;5.92
61977;BMP280;45905;50.570;10.428;2022-11-11T06:36:01;99539.81;;;5.93
61977;BMP280;45905;50.570;10.428;2022-11-11T06:38:47;99543.81;;;5.96
61977;BMP280;45905;50.570;10.428;2022-11-11T06:41:33;99542.94;;;5.97
61977;BMP280;45905;50.570;10.428;2022-11-11T06:44:19;99553.00;;;5.97
61977;BMP280;45905;50.570;10.428;2022-11-11T06:47:04;99548.03;;;5.95
61977;BMP280;45905;50.570;10.428;2022-11-11T06:49:50;99552.00;;;5.99
61977;BMP280;45905;50.570;10.428;2022-11-11T06:52:35;99559.38;;;6.02
61977;BMP280;45905;50.570;10.428;2022-11-11T06:55:21;99565.84;;;6.06
61977;BMP280;45905;50.570;10.428;2022-11-11T06:58:13;99559.84;;;6.09
61977;BMP280;45905;50.570;10.428;2022-11-11T07:01:04;99567.91;;;6.13
61977;BMP280;45905;50.570;10.428;2022-11-11T07:03:50;99569.38;;;6.17
61977;BMP280;45905;50.570;10.428;2022-11-11T07:06:36;99569.19;;;6.20
61977;BMP280;45905;50.570;10.428;2022-11-11T07:09:22;99579.88;;;6.24
61977;BMP280;45905;50.570;10.428;2022-11-11T07:12:09;99576.47;;;6.25
61977;BMP280;45905;50.570;10.428;2022-11-11T07:14:55;99577.09;;;6.28
61977;BMP280;45905;50.570;10.428;2022-11-11T07:17:40;99576.28;;;6.28
61977;BMP280;45905;50.570;10.428;2022-11-11T07:20:27;99583.84;;;6.28
61977;BMP280;45905;50.570;10.428;2022-11-11T07:23:13;99579.63;;;6.28
61977;BMP280;45905;50.570;10.428;2022-11-11T07:25:58;99583.47;;;6.33
61977;BMP280;45905;50.570;10.428;2022-11-11T07:28:44;99589.97;;;6.37
61977;BMP280;45905;50.570;10.428;2022-11-11T07:31:29;99580.41;;;6.42
61977;BMP280;45905;50.570;10.428;2022-11-11T07:34:15;99581.88;;;6.46
61977;BMP280;45905;50.570;10.428;2022-11-11T07:37:01;99582.47;;;6.49
61977;BMP280;45905;50.570;10.428;2022-11-11T07:39:46;99595.63;;;6.54
61977;BMP280;45905;50.570;10.428;2022-11-11T07:42:36;99584.53;;;6.57
61977;BMP280;45905;50.570;10.428;2022-11-11T07:45:21;99583.63;;;6.58
61977;BMP280;45905;50.570;10.428;2022-11-11T07:48:07;99579.31;;;6.60
61977;BMP280;45905;50.570;10.428;2022-11-11T07:50:53;99576.16;;;6.70
61977;BMP280;45905;50.570;10.428;2022-11-11T07:53:42;99590.00;;;6.90
61977;BMP280;45905;50.570;10.428;2022-11-11T07:56:27;99593.66;;;6.99
61977;BMP280;45905;50.570;10.428;2022-11-11T07:59:13;99586.72;;;7.02
61977;BMP280;45905;50.570;10.428;2022-11-11T08:01:59;99594.91;;;7.05
61977;BMP280;45905;50.570;10.428;2022-11-11T08:04:44;99605.69;;;7.07
61977;BMP280;45905;50.570;10.428;2022-11-11T08:07:35;99607.31;;;7.08
61977;BMP280;45905;50.570;10.428;2022-11-11T08:10:21;99608.81;;;7.11
61977;BMP280;45905;50.570;10.428;2022-11-11T08:13:10;99607.84;;;7.13
61977;BMP280;45905;50.570;10.428;2022-11-11T08:16:15;99604.25;;;7.17
61977;BMP280;45905;50.570;10.428;2022-11-11T08:19:01;99604.94;;;7.19
61977;BMP280;45905;50.570;10.428;2022-11-11T08:21:47;99604.84;;;7.21
61977;BMP280;45905;50.570;10.428;2022-11-11T08:24:32;99609.69;;;7.23
61977;BMP280;45905;50.570;10.428;2022-11-11T08:27:38;99607.78;;;7.27
61977;BMP280;45905;50.570;10.428;2022-11-11T08:30:25;99605.81;;;7.32
61977;BMP280;45905;50.570;10.428;2022-11-11T08:33:10;99595.63;;;7.33
61977;BMP280;45905;50.570;10.428;2022-11-11T08:36:16;99615.50;;;7.38
61977;BMP280;45905;50.570;10.428;2022-11-11T08:39:06;99606.13;;;7.40
61977;BMP280;45905;50.570;10.428;2022-11-11T08:41:52;99604.91;;;7.45
61977;BMP280;45905;50.570;10.428;2022-11-11T08:44:38;99604.66;;;7.49
61977;BMP280;45905;50.570;10.428;2022-11-11T08:47:23;99601.72;;;7.55
61977;BMP280;45905;50.570;10.428;2022-11-11T08:50:10;99599.84;;;7.59
61977;BMP280;45905;50.570;10.428;2022-11-11T08:52:56;99608.00;;;7.62
61977;BMP280;45905;50.570;10.428;2022-11-11T08:55:41;99612.06;;;7.64
61977;BMP280;45905;50.570;10.428;2022-11-11T08:58:27;99606.28;;;7.62
61977;BMP280;45905;50.570;10.428;2022-11-11T09:01:13;99604.38;;;7.66
61977;BMP280;45905;50.570;10.428;2022-11-11T09:03:59;99610.88;;;7.70
61977;BMP280;45905;50.570;10.428;2022-11-11T09:07:07;99605.41;;;7.76
61977;BMP280;45905;50.570;10.428;2022-11-11T09:09:53;99609.56;;;7.77
61977;BMP280;45905;50.570;10.428;2022-11-11T09:12:38;99611.19;;;7.78
61977;BMP280;45905;50.570;10.428;2022-11-11T09:15:24;99612.09;;;7.77
61977;BMP280;45905;50.570;10.428;2022-11-11T09:18:10;99606.13;;;7.78
61977;BMP280;45905;50.570;10.428;2022-11-11T09:20:59;99619.44;;;7.80
61977;BMP280;45905;50.570;10.428;2022-11-11T09:23:45;99620.88;;;7.83
61977;BMP280;45905;50.570;10.428;2022-11-11T09:26:30;99628.94;;;7.88
61977;BMP280;45905;50.570;10.428;2022-11-11T09:29:17;99626.06;;;7.94
61977;BMP280;45905;50.570;10.428;2022-11-11T09:32:04;99630.63;;;8.01
61977;BMP280;45905;50.570;10.428;2022-11-11T09:34:49;99623.38;;;8.09
61977;BMP280;45905;50.570;10.428;2022-11-11T09:37:35;99641.44;;;8.16
61977;BMP280;45905;50.570;10.428;2022-11-11T09:40:23;99639.44;;;8.20
61977;BMP280;45905;50.570;10.428;2022-11-11T09:43:52;99633.78;;;8.29
61977;BMP280;45905;50.570;10.428;2022-11-11T09:47:02;99629.94;;;8.36
61977;BMP280;45905;50.570;10.428;2022-11-11T09:50:08;99633.69;;;8.43
61977;BMP280;45905;50.570;10.428;2022-11-11T09:53:27;99645.78;;;8.50
61977;BMP280;45905;50.570;10.428;2022-11-11T09:56:22;99645.50;;;8.55
61977;BMP280;45905;50.570;10.428;2022-11-11T09:59:46;99635.88;;;8.59
61977;BMP280;45905;50.570;10.428;2022-11-11T10:02:45;99633.06;;;8.64
61977;BMP280;45905;50.570;10.428;2022-11-11T10:05:40;99635.16;;;8.70
61977;BMP280;45905;50.570;10.428;2022-11-11T10:14:42;99638.28;;;8.85
61977;BMP280;45905;50.570;10.428;2022-11-11T10:17:42;99649.81;;;8.89
61977;BMP280;45905;50.570;10.428;2022-11-11T10:20:39;99650.41;;;8.93
61977;BMP280;45905;50.570;10.428;2022-11-11T10:23:33;99650.41;;;8.93
61977;BMP280;45905;50.570;10.428;2022-11-11T10:29:22;99655.34;;;8.94
61977;BMP280;45905;50.570;10.428;2022-11-11T10:32:17;99649.28;;;8.96
61977;BMP280;45905;50.570;10.428;2022-11-11T10:35:17;99650.09;;;8.97
61977;BMP280;45905;50.570;10.428;2022-11-11T10:41:42;99656.16;;;8.95
61977;BMP280;45905;50.570;10.428;2022-11-11T10:44:32;99660.09;;;8.98
61977;BMP280;45905;50.570;10.428;2022-11-11T10:47:54;99662.72;;;8.97
61977;BMP280;45905;50.570;10.428;2022-11-11T10:50:59;99659.91;;;9.01
61977;BMP280;45905;50.570;10.428;2022-11-11T10:54:35;99648.47;;;9.08
61977;BMP280;45905;50.570;10.428;2022-11-11T10:57:53;99649.47;;;9.06
61977;BMP280;45905;50.570;10.428;2022-11-11T11:00:42;99646.72;;;9.09
61977;BMP280;45905;50.570;10.428;2022-11-11T11:03:35;99645.69;;;9.11
61977;BMP280;45905;50.570;10.428;2022-11-11T11:06:27;99642.78;;;9.17
61977;BMP280;45905;50.570;10.428;2022-11-11T11:09:44;99627.34;;;9.20
61977;BMP280;45905;50.570;10.428;2022-11-11T11:15:42;99636.84;;;9.29
61977;BMP280;45905;50.570;10.428;2022-11-11T11:18:33;99631.13;;;9.37
61977;BMP280;45905;50.570;10.428;2022-11-11T11:21:26;99621.09;;;9.48
61977;BMP280;45905;50.570;10.428;2022-11-11T11:24:31;99622.66;;;9.61
61977;BMP280;45905;50.570;10.428;2022-11-11T11:27:25;99621.66;;;9.74
61977;BMP280;45905;50.570;10.428;2022-11-11T11:30:16;99614.13;;;9.85
61977;BMP280;45905;50.570;10.428;2022-11-11T11:33:07;99614.06;;;9.97
61977;BMP280;45905;50.570;10.428;2022-11-11T11:35:53;99616.72;;;10.07
61977;BMP280;45905;50.570;10.428;2022-11-11T11:38:43;99611.09;;;10.14
61977;BMP280;45905;50.570;10.428;2022-11-11T11:41:41;99614.59;;;10.24
61977;BMP280;45905;50.570;10.428;2022-11-11T11:44:33;99608.13;;;10.30
61977;BMP280;45905;50.570;10.428;2022-11-11T11:47:41;99610.91;;;10.38
61977;BMP280;45905;50.570;10.428;2022-11-11T11:50:48;99609.53;;;10.45
61977;BMP280;45905;50.570;10.428;2022-11-11T12:00:18;99599.19;;;10.59
61977;BMP280;45905;50.570;10.428;2022-11-11T12:03:44;99603.19;;;10.72
61977;BMP280;45905;50.570;10.428;2022-11-11T12:13:22;99597.25;;;11.04
61977;BMP280;45905;50.570;10.428;2022-11-11T12:19:46;99594.09;;;11.22
61977;BMP280;45905;50.570;10.428;2022-11-11T12:29:55;99577.75;;;11.36
61977;BMP280;45905;50.570;10.428;2022-11-11T12:39:29;99576.63;;;11.49
61977;BMP280;45905;50.570;10.428;2022-11-11T12:42:39;99569.59;;;11.53
61977;BMP280;45905;50.570;10.428;2022-11-11T12:45:51;99573.88;;;11.52
61977;BMP280;45905;50.570;10.428;2022-11-11T12:52:27;99572.56;;;11.58
61977;BMP280;45905;50.570;10.428;2022-11-11T12:55:36;99573.25;;;11.60
61977;BMP280;45905;50.570;10.428;2022-11-11T12:58:42;99571.31;;;11.52
61977;BMP280;45905;50.570;10.428;2022-11-11T13:14:37;99558.81;;;11.60
61977;BMP280;45905;50.570;10.428;2022-11-11T13:17:26;99571.41;;;11.62
61977;BMP280;45905;50.570;10.428;2022-11-11T13:23:10;99566.88;;;11.65
61977;BMP280;45905;50.570;10.428;2022-11-11T13:26:03;99553.81;;;11.69
61977;BMP280;45905;50.570;10.428;2022-11-11T13:29:14;99552.91;;;11.70
61977;BMP280;45905;50.570;10.428;2022-11-11T13:32:10;99563.75;;;11.72
61977;BMP280;45905;50.570;10.428;2022-11-11T13:34:58;99558.50;;;11.74
61977;BMP280;45905;50.570;10.428;2022-11-11T13:37:45;99560.81;;;11.77
61977;BMP280;45905;50.570;10.428;2022-11-11T13:40:43;99563.00;;;11.81
61977;BMP280;45905;50.570;10.428;2022-11-11T13:43:42;99567.69;;;11.85
61977;BMP280;45905;50.570;10.428;2022-11-11T13:46:43;99568.38;;;11.87
61977;BMP280;45905;50.570;10.428;2022-11-11T13:49:54;99574.56;;;11.94
61977;BMP280;45905;50.570;10.428;2022-11-11T13:53:10;99567.25;;;12.01
61977;BMP280;45905;50.570;10.428;2022-11-11T13:56:04;99565.28;;;12.04
61977;BMP280;45905;50.570;10.428;2022-11-11T13:58:52;99566.50;;;12.09
61977;BMP280;45905;50.570;10.428;2022-11-11T14:01:39;99569.03;;;12.09
61977;BMP280;45905;50.570;10.428;2022-11-11T14:04:27;99568.75;;;12.03
61977;BMP280;45905;50.570;10.428;2022-11-11T14:16:10;99566.56;;;11.59
61977;BMP280;45905;50.570;10.428;2022-11-11T14:18:56;99564.06;;;11.48
61977;BMP280;45905;50.570;10.428;2022-11-11T14:24:43;99567.94;;;11.32
61977;BMP280;45905;50.570;10.428;2022-11-11T14:27:31;99575.91;;;11.27
61977;BMP280;45905;50.570;10.428;2022-11-11T14:30:38;99577.97;;;11.23
61977;BMP280;45905;50.570;10.428;2022-11-11T14:39:41;99582.41;;;11.10
61977;BMP280;45905;50.570;10.428;2022-11-11T14:48:59;99578.16;;;10.89
61977;BMP280;45905;50.570;10.428;2022-11-11T14:51:52;99571.16;;;10.82
61977;BMP280;45905;50.570;10.428;2022-11-11T14:57:56;99572.78;;;10.72
61977;BMP280;45905;50.570;10.428;2022-11-11T15:03:46;99582.69;;;10.64
61977;BMP280;45905;50.570;10.428;2022-11-11T15:06:42;99577.72;;;10.63
61977;BMP280;45905;50.570;10.428;2022-11-11T15:09:42;99575.56;;;10.58
61977;BMP280;45905;50.570;10.428;2022-11-11T15:13:26;99579.00;;;10.47
61977;BMP280;45905;50.570;10.428;2022-11-11T15:19:17;99568.53;;;10.40
61977;BMP280;45905;50.570;10.428;2022-11-11T15:26:51;99574.16;;;10.33
61977;BMP280;45905;50.570;10.428;2022-11-11T15:32:32;99577.63;;;10.21
61977;BMP280;45905;50.570;10.428;2022-11-11T15:38:45;99578.47;;;9.99
61977;BMP280;45905;50.570;10.428;2022-11-11T15:41:42;99577.31;;;9.92
61977;BMP280;45905;50.570;10.428;2022-11-11T15:44:31;99568.34;;;9.88
61977;BMP280;45905;50.570;10.428;2022-11-11T15:47:20;99571.09;;;9.85
61977;BMP280;45905;50.570;10.428;2022-11-11T15:50:32;99571.03;;;9.74
61977;BMP280;45905;50.570;10.428;2022-11-11T15:53:26;99580.19;;;9.65
61977;BMP280;45905;50.570;10.428;2022-11-11T15:56:29;99578.59;;;9.64
61977;BMP280;45905;50.570;10.428;2022-11-11T15:59:30;99579.63;;;9.61
61977;BMP280;45905;50.570;10.428;2022-11-11T16:02:21;99582.47;;;9.57
61977;BMP280;45905;50.570;10.428;2022-11-11T16:05:24;99582.94;;;9.51
61977;BMP280;45905;50.570;10.428;2022-11-11T16:08:20;99589.81;;;9.49
61977;BMP280;45905;50.570;10.428;2022-11-11T16:11:13;99602.00;;;9.44
61977;BMP280;45905;50.570;10.428;2022-11-11T16:14:03;99593.00;;;9.40
61977;BMP280;45905;50.570;10.428;2022-11-11T16:16:57;99596.78;;;9.35
61977;BMP280;45905;50.570;10.428;2022-11-11T16:19:46;99592.03;;;9.31
61977;BMP280;45905;50.570;10.428;2022-11-11T16:22:36;99600.03;;;9.25
61977;BMP280;45905;50.570;10.428;2022-11-11T16:25:24;99601.88;;;9.23
61977;BMP280;45905;50.570;10.428;2022-11-11T16:28:12;99604.59;;;9.20
61977;BMP280;45905;50.570;10.428;2022-11-11T16:30:58;99614.34;;;9.14
61977;BMP280;45905;50.570;10.428;2022-11-11T16:33:44;99611.25;;;9.10
61977;BMP280;45905;50.570;10.428;2022-11-11T16:36:29;99610.63;;;9.07
61977;BMP280;45905;50.570;10.428;2022-11-11T16:39:19;99612.56;;;9.03
61977;BMP280;45905;50.570;10.428;2022-11-11T16:42:23;99615.31;;;9.00
61977;BMP280;45905;50.570;10.428;2022-11-11T16:45:28;99608.84;;;8.96
61977;BMP280;45905;50.570;10.428;2022-11-11T16:48:41;99612.50;;;8.93
61977;BMP280;45905;50.570;10.428;2022-11-11T16:51:45;99612.69;;;8.90
61977;BMP280;45905;50.570;10.428;2022-11-11T16:54:37;99616.34;;;8.86
61977;BMP280;45905;50.570;10.428;2022-11-11T16:57:31;99615.75;;;8.82
61977;BMP280;45905;50.570;10.428;2022-11-11T17:00:22;99620.19;;;8.79
61977;BMP280;45905;50.570;10.428;2022-11-11T17:03:16;99618.81;;;8.75
61977;BMP280;45905;50.570;10.428;2022-11-11T17:06:07;99617.19;;;8.74
61977;BMP280;45905;50.570;10.428;2022-11-11T17:08:54;99619.00;;;8.72
61977;BMP280;45905;50.570;10.428;2022-11-11T17:14:27;99618.50;;;8.67
61977;BMP280;45905;50.570;10.428;2022-11-11T17:17:13;99623.06;;;8.62
61977;BMP280;45905;50.570;10.428;2022-11-11T17:22:54;99611.75;;;8.56
61977;BMP280;45905;50.570;10.428;2022-11-11T17:25:40;99616.81;;;8.56
61977;BMP280;45905;50.570;10.428;2022-11-11T17:28:30;99607.81;;;8.52
61977;BMP280;45905;50.570;10.428;2022-11-11T17:31:16;99610.44;;;8.50
61977;BMP280;45905;50.570;10.428;2022-11-11T17:34:09;99604.78;;;8.47
61977;BMP280;45905;50.570;10.428;2022-11-11T17:36:55;99603.97;;;8.46
61977;BMP280;45905;50.570;10.428;2022-11-11T17:39:41;99602.56;;;8.42
61977;BMP280;45905;50.570;10.428;2022-11-11T17:42:29;99610.13;;;8.42
61977;BMP280;45905;50.570;10.428;2022-11-11T17:45:15;99611.03;;;8.41
61977;BMP280;45905;50.570;10.428;2022-11-11T17:48:01;99607.72;;;8.41
61977;BMP280;45905;50.570;10.428;2022-11-11T17:50:47;99622.06;;;8.40
61977;BMP280;45905;50.570;10.428;2022-11-11T17:53:34;99616.41;;;8.37
61977;BMP280;45905;50.570;10.428;2022-11-11T17:56:21;99619.84;;;8.36
61977;BMP280;45905;50.570;10.428;2022-11-11T17:59:07;99614.97;;;8.33
61977;BMP280;45905;50.570;10.428;2022-11-11T18:01:53;99618.41;;;8.32
61977;BMP280;45905;50.570;10.428;2022-11-11T18:04:40;99616.84;;;8.31
61977;BMP280;45905;50.570;10.428;2022-11-11T18:07:25;99625.50;;;8.27
61977;BMP280;45905;50.570;10.428;2022-11-11T18:10:12;99611.44;;;8.23
61977;BMP280;45905;50.570;10.428;2022-11-11T18:12:58;99623.25;;;8.23
61977;BMP280;45905;50.570;10.428;2022-11-11T18:15:43;99624.28;;;8.20
61977;BMP280;45905;50.570;10.428;2022-11-11T18:18:30;99620.25;;;8.18
61977;BMP280;45905;50.570;10.428;2022-11-11T18:21:16;99622.88;;;8.17
61977;BMP280;45905;50.570;10.428;2022-11-11T18:24:05;99619.63;;;8.15
61977;BMP280;45905;50.570;10.428;2022-11-11T18:26:52;99627.50;;;8.10
61977;BMP280;45905;50.570;10.428;2022-11-11T18:29:37;99621.66;;;8.10